createdAt,value
2022-12-08T00:02:06.431Z,1.33
2022-12-08T00:04:54.096Z,1.31
2022-12-08T00:07:40.405Z,1.30
2022-12-08T00:10:39.826Z,1.29
2022-12-08T00:12:56.188Z,1.27
2022-12-08T00:15:23.889Z,1.22
2022-12-08T00:17:51.467Z,1.26
2022-12-08T00:20:18.967Z,1.27
2022-12-08T00:22:46.676Z,1.29
2022-12-08T00:25:14.850Z,1.30
2022-12-08T00:27:42.440Z,1.31
2022-12-08T00:30:10.727Z,1.32
2022-12-08T00:32:38.446Z,1.31
2022-12-08T00:35:06.341Z,1.33
2022-12-08T00:37:34.100Z,1.34
2022-12-08T00:40:01.991Z,1.35
2022-12-08T00:42:29.967Z,1.32
2022-12-08T00:44:57.607Z,1.29
2022-12-08T00:47:25.275Z,1.30
2022-12-08T00:49:52.771Z,1.34
2022-12-08T00:52:20.538Z,1.35
2022-12-08T00:54:48.557Z,1.35
2022-12-08T00:57:16.045Z,1.35
2022-12-08T00:59:43.572Z,1.35
2022-12-08T01:02:11.220Z,1.35
2022-12-08T01:04:39.132Z,1.36
2022-12-08T01:07:06.677Z,1.36
2022-12-08T01:09:34.189Z,1.33
2022-12-08T01:12:01.814Z,1.32
2022-12-08T01:14:29.341Z,1.32
2022-12-08T01:16:57.077Z,1.30
2022-12-08T01:19:24.768Z,1.30
2022-12-08T01:21:52.310Z,1.29
2022-12-08T01:24:21.345Z,1.28
2022-12-08T01:26:50.873Z,1.26
2022-12-08T01:29:18.566Z,1.23
2022-12-08T01:31:46.052Z,1.20
2022-12-08T01:34:13.557Z,1.15
2022-12-08T01:36:42.512Z,1.13
2022-12-08T01:39:19.971Z,1.10
2022-12-08T01:41:47.929Z,1.08
2022-12-08T01:44:15.390Z,1.05
2022-12-08T01:46:45.547Z,1.02
2022-12-08T01:49:18.015Z,1.00
2022-12-08T01:51:57.275Z,0.94
2022-12-08T01:54:29.169Z,0.90
2022-12-08T01:57:06.444Z,0.85
2022-12-08T01:59:38.910Z,0.79
2022-12-08T02:02:06.384Z,0.75
2022-12-08T02:04:34.061Z,0.71
2022-12-08T02:07:07.804Z,0.68
2022-12-08T02:09:37.731Z,0.62
2022-12-08T02:12:05.605Z,0.56
2022-12-08T02:14:34.503Z,0.47
2022-12-08T02:17:49.267Z,0.39
2022-12-08T02:20:42.309Z,0.34
2022-12-08T02:23:24.243Z,0.31
2022-12-08T02:26:09.837Z,0.31
2022-12-08T02:29:25.151Z,0.34
2022-12-08T02:32:23.908Z,0.34
2022-12-08T02:34:57.477Z,0.32
2022-12-08T02:37:41.086Z,0.31
2022-12-08T02:40:27.360Z,0.29
2022-12-08T02:43:20.273Z,0.23
2022-12-08T02:45:57.096Z,0.17
2022-12-08T02:48:28.444Z,0.13
2022-12-08T02:50:56.465Z,0.07
2022-12-08T02:53:24.003Z,0.02
2022-12-08T02:56:09.667Z,-0.07
2022-12-08T02:59:00.299Z,-0.15
2022-12-08T03:01:37.471Z,-0.22
2022-12-08T03:04:22.567Z,-0.27
2022-12-08T03:07:24.688Z,-0.33
2022-12-08T03:10:03.602Z,-0.36
2022-12-08T03:12:48.639Z,-0.45
2022-12-08T03:15:19.809Z,-0.51
2022-12-08T03:17:53.375Z,-0.55
2022-12-08T03:20:27.943Z,-0.59
2022-12-08T03:22:57.521Z,-0.60
2022-12-08T03:25:30.549Z,-0.59
2022-12-08T03:27:59.821Z,-0.61
2022-12-08T03:30:31.907Z,-0.63
2022-12-08T03:33:06.268Z,-0.67
2022-12-08T03:35:37.003Z,-0.76
2022-12-08T03:38:13.647Z,-0.80
2022-12-08T03:40:41.546Z,-0.81
2022-12-08T03:43:09.440Z,-0.84
2022-12-08T03:45:37.142Z,-0.88
2022-12-08T03:48:04.707Z,-0.91
2022-12-08T03:50:32.540Z,-0.91
2022-12-08T03:53:00.088Z,-0.86
2022-12-08T03:55:27.773Z,-0.83
2022-12-08T03:57:55.237Z,-0.85
2022-12-08T04:00:23.052Z,-0.89
2022-12-08T04:02:50.655Z,-0.96
2022-12-08T04:05:18.220Z,-0.96
2022-12-08T04:07:45.748Z,-0.97
2022-12-08T04:10:13.363Z,-0.96
2022-12-08T04:12:40.850Z,-0.95
2022-12-08T04:15:09.130Z,-0.95
2022-12-08T04:17:36.618Z,-0.98
2022-12-08T04:20:04.745Z,-0.98
2022-12-08T04:22:32.529Z,-0.96
2022-12-08T04:25:00.199Z,-0.96
2022-12-08T04:27:27.745Z,-0.95
2022-12-08T04:29:55.217Z,-0.96
2022-12-08T04:32:22.678Z,-0.99
2022-12-08T04:34:50.228Z,-1.02
2022-12-08T04:37:17.689Z,-1.05
2022-12-08T04:39:45.174Z,-1.08
2022-12-08T04:42:12.622Z,-1.10
2022-12-08T04:44:40.178Z,-1.12
2022-12-08T04:47:07.708Z,-1.15
2022-12-08T04:49:35.255Z,-1.16
2022-12-08T04:52:02.967Z,-1.17
2022-12-08T04:54:30.505Z,-1.19
2022-12-08T04:56:57.971Z,-1.19
2022-12-08T04:59:25.523Z,-1.20
2022-12-08T05:01:53.150Z,-1.20
2022-12-08T05:04:20.812Z,-1.21
2022-12-08T05:06:48.349Z,-1.22
2022-12-08T05:09:15.864Z,-1.23
2022-12-08T05:11:48.627Z,-1.27
2022-12-08T05:14:18.576Z,-1.29
2022-12-08T05:16:47.220Z,-1.32
2022-12-08T05:19:15.966Z,-1.34
2022-12-08T05:21:43.654Z,-1.33
2022-12-08T05:24:11.223Z,-1.35
2022-12-08T05:26:38.675Z,-1.35
2022-12-08T05:29:06.180Z,-1.35
2022-12-08T05:31:33.988Z,-1.37
2022-12-08T05:34:03.444Z,-1.37
2022-12-08T05:36:31.167Z,-1.34
2022-12-08T05:38:58.678Z,-1.32
2022-12-08T05:41:26.387Z,-1.28
2022-12-08T05:43:53.919Z,-1.28
2022-12-08T05:46:22.089Z,-1.26
2022-12-08T05:48:49.779Z,-1.27
2022-12-08T05:51:23.242Z,-1.31
2022-12-08T05:53:52.022Z,-1.34
2022-12-08T05:56:20.158Z,-1.37
2022-12-08T05:58:48.369Z,-1.39
2022-12-08T06:01:28.144Z,-1.43
2022-12-08T06:03:57.856Z,-1.45
2022-12-08T06:06:25.936Z,-1.48
2022-12-08T06:08:54.377Z,-1.51
2022-12-08T06:11:27.812Z,-1.50
2022-12-08T06:13:56.904Z,-1.52
2022-12-08T06:16:26.533Z,-1.54
2022-12-08T06:18:55.208Z,-1.53
2022-12-08T06:21:23.233Z,-1.56
2022-12-08T06:23:52.871Z,-1.57
2022-12-08T06:26:21.338Z,-1.57
2022-12-08T06:28:49.699Z,-1.58
2022-12-08T06:31:20.508Z,-1.58
2022-12-08T06:33:48.801Z,-1.59
2022-12-08T06:36:19.463Z,-1.59
2022-12-08T06:38:47.559Z,-1.61
2022-12-08T06:41:15.885Z,-1.62
2022-12-08T06:43:44.087Z,-1.63
2022-12-08T06:46:16.264Z,-1.64
2022-12-08T06:48:44.118Z,-1.65
2022-12-08T06:51:20.711Z,-1.67
2022-12-08T06:53:48.534Z,-1.66
2022-12-08T06:56:17.118Z,-1.66
2022-12-08T06:58:50.450Z,-1.68
2022-12-08T07:01:19.799Z,-1.71
2022-12-08T07:03:48.110Z,-1.73
2022-12-08T07:06:19.344Z,-1.74
2022-12-08T07:08:47.171Z,-1.77
2022-12-08T07:11:21.202Z,-1.78
2022-12-08T07:13:50.348Z,-1.76
2022-12-08T07:16:18.162Z,-1.79
2022-12-08T07:18:45.736Z,-1.82
2022-12-08T07:21:17.308Z,-1.84
2022-12-08T07:23:54.213Z,-1.86
2022-12-08T07:26:26.917Z,-1.88
2022-12-08T07:28:54.896Z,-1.88
2022-12-08T07:31:25.214Z,-1.88
2022-12-08T07:33:53.647Z,-1.89
2022-12-08T07:36:21.607Z,-1.89
2022-12-08T07:38:50.412Z,-1.91
2022-12-08T07:41:23.684Z,-1.94
2022-12-08T07:43:52.093Z,-1.94
2022-12-08T07:46:22.032Z,-1.94
2022-12-08T07:48:49.797Z,-1.95
2022-12-08T07:51:17.686Z,-1.94
2022-12-08T07:53:53.387Z,-1.94
2022-12-08T07:56:22.584Z,-1.97
2022-12-08T07:58:50.632Z,-1.98
2022-12-08T08:01:29.689Z,-2.03
2022-12-08T08:04:02.075Z,-2.09
2022-12-08T08:06:30.039Z,-2.17
2022-12-08T08:08:57.586Z,-2.17
2022-12-08T08:11:25.286Z,-2.15
2022-12-08T08:13:53.729Z,-2.16
2022-12-08T08:16:21.791Z,-2.15
2022-12-08T08:18:50.841Z,-2.15
2022-12-08T08:24:08.011Z,-2.14
2022-12-08T08:26:37.225Z,-2.14
2022-12-08T08:29:04.955Z,-2.12
2022-12-08T08:31:32.573Z,-2.15
2022-12-08T08:34:05.032Z,-2.13
2022-12-08T08:36:33.062Z,-2.12
2022-12-08T08:39:00.591Z,-2.09
2022-12-08T08:41:28.133Z,-2.09
2022-12-08T08:43:55.677Z,-2.08
2022-12-08T08:46:23.304Z,-2.07
2022-12-08T08:48:50.847Z,-2.08
2022-12-08T08:51:18.544Z,-2.06
2022-12-08T08:53:46.166Z,-2.03
2022-12-08T08:56:19.385Z,-2.02
2022-12-08T08:58:49.666Z,-2.01
2022-12-08T09:01:22.802Z,-1.98
2022-12-08T09:03:50.984Z,-1.94
2022-12-08T09:06:19.415Z,-1.90
2022-12-08T09:08:48.635Z,-1.88
2022-12-08T09:11:18.706Z,-1.84
2022-12-08T09:13:51.545Z,-1.82
2022-12-08T09:16:19.900Z,-1.78
2022-12-08T09:18:51.209Z,-1.72
2022-12-08T09:21:26.103Z,-1.64
2022-12-08T09:23:56.374Z,-1.54
2022-12-08T09:26:25.398Z,-1.43
2022-12-08T09:28:55.000Z,-1.32
2022-12-08T09:31:24.524Z,-1.19
2022-12-08T09:33:52.398Z,-1.13
2022-12-08T09:36:21.113Z,-1.08
2022-12-08T09:38:50.383Z,-1.06
2022-12-08T09:41:36.851Z,-1.06
2022-12-08T09:44:06.646Z,-1.05
2022-12-08T09:46:35.789Z,-0.99
2022-12-08T09:49:11.678Z,-0.97
2022-12-08T09:51:42.004Z,-0.99
2022-12-08T09:54:13.793Z,-1.00
2022-12-08T09:56:41.806Z,-1.00
2022-12-08T09:59:09.258Z,-0.99
2022-12-08T10:01:42.095Z,-0.96
2022-12-08T10:04:24.116Z,-0.93
2022-12-08T10:07:17.017Z,-0.88
2022-12-08T10:09:58.113Z,-0.84
2022-12-08T10:12:43.263Z,-0.78
2022-12-08T10:15:16.882Z,-0.72
2022-12-08T10:17:49.149Z,-0.60
2022-12-08T10:20:22.576Z,-0.43
2022-12-08T10:23:06.547Z,-0.27
2022-12-08T10:25:41.426Z,-0.12
2022-12-08T10:28:11.103Z,-0.05
2022-12-08T10:30:38.936Z,0.00
2022-12-08T10:33:15.341Z,0.07
2022-12-08T10:35:58.398Z,0.22
2022-12-08T10:38:37.416Z,0.47
2022-12-08T10:41:14.672Z,1.47
2022-12-08T10:43:53.444Z,2.63
2022-12-08T10:46:27.075Z,3.79
2022-12-08T10:49:06.862Z,4.85
2022-12-08T10:51:34.519Z,4.96
2022-12-08T10:54:03.377Z,5.68
2022-12-08T10:56:31.544Z,6.05
2022-12-08T10:59:07.160Z,6.02
2022-12-08T11:01:39.386Z,6.19
2022-12-08T11:04:21.142Z,6.53
2022-12-08T11:06:50.728Z,6.36
2022-12-08T11:09:18.625Z,6.02
2022-12-08T11:11:50.606Z,5.72
2022-12-08T11:14:27.766Z,5.50
2022-12-08T11:17:07.396Z,5.36
2022-12-08T11:19:39.485Z,5.16
2022-12-08T11:22:26.899Z,4.94
2022-12-08T11:25:27.142Z,4.68
2022-12-08T11:28:00.892Z,4.49
2022-12-08T11:30:36.918Z,4.39
2022-12-08T11:33:23.956Z,4.30
2022-12-08T11:36:12.034Z,4.20
2022-12-08T11:38:47.846Z,4.12
2022-12-08T11:41:19.375Z,4.04
2022-12-08T11:44:02.233Z,3.92
2022-12-08T11:46:43.354Z,3.82
2022-12-08T11:49:13.802Z,3.71
2022-12-08T11:51:48.317Z,3.64
2022-12-08T11:54:26.489Z,3.67
2022-12-08T11:57:00.870Z,3.77
2022-12-08T11:59:34.774Z,4.16
2022-12-08T12:02:04.645Z,4.74
2022-12-08T12:04:50.057Z,5.23
2022-12-08T12:07:37.489Z,5.60
2022-12-08T12:10:39.119Z,6.07
2022-12-08T12:13:30.700Z,6.82
2022-12-08T12:16:17.436Z,7.66
2022-12-08T12:18:53.247Z,8.31
2022-12-08T12:21:29.659Z,8.82
2022-12-08T12:24:10.492Z,9.39
2022-12-08T12:26:49.749Z,9.84
2022-12-08T12:29:20.260Z,10.22
2022-12-08T12:40:24.733Z,10.76
2022-12-08T12:42:54.984Z,10.78
2022-12-08T12:45:22.482Z,10.91
2022-12-08T12:47:56.203Z,11.04
2022-12-08T12:50:33.599Z,11.12
2022-12-08T12:53:15.608Z,11.08
2022-12-08T12:55:46.205Z,11.09
2022-12-08T12:58:36.567Z,11.11
2022-12-08T13:01:12.924Z,11.12
2022-12-08T13:03:44.174Z,11.16
2022-12-08T13:06:14.976Z,11.16
2022-12-08T13:09:03.707Z,11.00
2022-12-08T13:11:48.071Z,10.98
2022-12-08T13:14:31.699Z,11.08
2022-12-08T13:17:01.677Z,11.19
2022-12-08T13:23:36.587Z,11.29
2022-12-08T13:26:15.088Z,11.23
2022-12-08T13:29:08.735Z,11.19
2022-12-08T13:40:27.785Z,10.85
2022-12-08T13:43:10.670Z,10.82
2022-12-08T13:46:41.961Z,10.82
2022-12-08T13:57:32.754Z,10.61
2022-12-08T14:00:14.803Z,10.57
2022-12-08T14:02:47.771Z,10.58
2022-12-08T14:05:23.450Z,10.49
2022-12-08T14:07:57.595Z,10.39
2022-12-08T14:10:32.125Z,10.13
2022-12-08T14:13:06.473Z,9.80
2022-12-08T14:15:38.088Z,9.53
2022-12-08T14:18:21.204Z,9.31
2022-12-08T14:21:22.087Z,8.96
2022-12-08T14:23:49.827Z,8.56
2022-12-08T14:26:18.116Z,8.30
2022-12-08T14:28:45.946Z,8.16
2022-12-08T14:31:14.683Z,8.03
2022-12-08T14:33:43.146Z,7.88
2022-12-08T14:36:14.682Z,7.76
2022-12-08T14:38:42.405Z,7.56
2022-12-08T14:41:12.056Z,7.36
2022-12-08T14:43:43.195Z,7.15
2022-12-08T14:46:22.479Z,6.97
2022-12-08T14:48:50.340Z,6.75
2022-12-08T14:51:25.320Z,6.52
2022-12-08T14:54:00.049Z,6.28
2022-12-08T14:56:41.891Z,6.02
2022-12-08T14:59:09.518Z,5.78
2022-12-08T15:01:42.241Z,5.56
2022-12-08T15:04:13.021Z,5.35
2022-12-08T15:06:59.833Z,5.17
2022-12-08T15:09:30.218Z,4.98
2022-12-08T15:12:02.917Z,4.82
2022-12-08T15:14:36.344Z,4.63
2022-12-08T15:17:24.521Z,4.49
2022-12-08T15:19:57.174Z,4.29
2022-12-08T15:22:26.660Z,4.13
2022-12-08T15:24:54.668Z,3.98
2022-12-08T15:27:25.052Z,3.87
2022-12-08T15:34:37.657Z,3.54
2022-12-08T15:37:52.084Z,3.42
2022-12-08T15:40:23.048Z,3.30
2022-12-08T15:42:50.676Z,3.20
2022-12-08T15:45:18.871Z,3.11
2022-12-08T15:47:46.524Z,2.99
2022-12-08T15:50:22.375Z,2.90
2022-12-08T15:52:50.949Z,2.80
2022-12-08T15:55:20.693Z,2.73
2022-12-08T16:00:57.952Z,2.57
2022-12-08T16:04:09.343Z,2.51
2022-12-08T16:09:17.647Z,2.33
2022-12-08T16:12:07.115Z,2.26
2022-12-08T16:17:24.383Z,2.13
2022-12-08T16:19:51.959Z,2.07
2022-12-08T16:25:21.135Z,1.95
2022-12-08T16:28:12.389Z,1.90
2022-12-08T16:30:45.519Z,1.84
2022-12-08T16:33:13.227Z,1.82
2022-12-08T16:44:48.037Z,1.69
2022-12-08T16:47:15.723Z,1.67
2022-12-08T16:49:43.272Z,1.62
2022-12-08T16:52:11.059Z,1.60
2022-12-08T16:54:50.566Z,1.55
2022-12-08T16:57:21.074Z,1.50
2022-12-08T16:59:48.653Z,1.46
2022-12-08T17:02:16.666Z,1.43
2022-12-08T17:04:44.433Z,1.40
2022-12-08T17:07:12.092Z,1.37
2022-12-08T17:09:39.700Z,1.34
2022-12-08T17:12:07.432Z,1.31
2022-12-08T17:14:35.744Z,1.29
2022-12-08T17:17:03.895Z,1.29
2022-12-08T17:19:32.033Z,1.28
2022-12-08T17:21:59.634Z,1.27
2022-12-08T17:24:29.139Z,1.27
2022-12-08T17:26:58.428Z,1.25
2022-12-08T17:29:25.942Z,1.24
2022-12-08T17:31:53.647Z,1.23
2022-12-08T17:34:21.753Z,1.22
2022-12-08T17:36:49.384Z,1.23
2022-12-08T17:39:18.956Z,1.23
2022-12-08T17:41:47.426Z,1.24
2022-12-08T17:44:19.234Z,1.24
2022-12-08T17:46:52.506Z,1.24
2022-12-08T17:49:24.985Z,1.25
2022-12-08T17:51:55.527Z,1.23
2022-12-08T17:54:23.489Z,1.21
2022-12-08T17:56:51.515Z,1.20
2022-12-08T17:59:19.143Z,1.19
2022-12-08T18:01:46.952Z,1.19
2022-12-08T18:04:14.851Z,1.18
2022-12-08T18:06:42.424Z,1.17
2022-12-08T18:09:10.099Z,1.16
2022-12-08T18:11:37.687Z,1.11
2022-12-08T18:14:10.277Z,0.99
2022-12-08T18:16:40.824Z,0.85
2022-12-08T18:19:09.711Z,0.77
2022-12-08T18:21:38.107Z,0.68
2022-12-08T18:24:37.944Z,0.65
2022-12-08T18:27:05.527Z,0.57
2022-12-08T18:29:33.534Z,0.51
2022-12-08T18:32:16.167Z,0.47
2022-12-08T18:34:44.296Z,0.47
2022-12-08T18:37:11.823Z,0.46
2022-12-08T18:39:39.703Z,0.46
2022-12-08T18:42:23.042Z,0.47
2022-12-08T18:45:07.506Z,0.47
2022-12-08T18:47:39.730Z,0.45
2022-12-08T18:50:09.256Z,0.43
2022-12-08T18:52:36.894Z,0.40
2022-12-08T18:55:06.713Z,0.36
2022-12-08T18:57:38.422Z,0.33
2022-12-08T19:00:08.427Z,0.31
2022-12-08T19:02:38.532Z,0.30
2022-12-08T19:05:08.142Z,0.27
2022-12-08T19:07:36.034Z,0.17
2022-12-08T19:10:05.090Z,0.10
2022-12-08T19:12:33.026Z,0.04
2022-12-08T19:15:00.593Z,0.00
2022-12-08T19:17:29.786Z,0.04
2022-12-08T19:19:57.580Z,0.04
2022-12-08T19:22:25.214Z,0.05
2022-12-08T19:24:52.828Z,0.07
2022-12-08T19:27:20.480Z,0.09
2022-12-08T19:29:48.088Z,0.07
2022-12-08T19:32:15.679Z,0.08
2022-12-08T19:34:43.265Z,0.08
2022-12-08T19:37:12.687Z,0.07
2022-12-08T19:39:59.673Z,0.09
2022-12-08T19:42:45.879Z,0.08
2022-12-08T19:45:18.556Z,0.05
2022-12-08T19:48:43.005Z,0.01
2022-12-08T19:56:18.590Z,-0.14
2022-12-08T19:58:46.271Z,-0.15
2022-12-08T20:01:14.068Z,-0.14
2022-12-08T20:03:41.810Z,-0.13
2022-12-08T20:06:18.012Z,-0.14
2022-12-08T20:08:50.369Z,-0.15
2022-12-08T20:11:18.482Z,-0.17
2022-12-08T20:13:47.793Z,-0.18
2022-12-08T20:16:16.557Z,-0.17
2022-12-08T20:18:44.367Z,-0.19
2022-12-08T20:21:12.519Z,-0.22
2022-12-08T20:23:41.178Z,-0.24
2022-12-08T20:26:12.463Z,-0.26
2022-12-08T20:28:40.214Z,-0.26
2022-12-08T20:31:08.017Z,-0.24
2022-12-08T20:33:37.743Z,-0.25
2022-12-08T20:36:07.532Z,-0.28
2022-12-08T20:38:35.197Z,-0.30
2022-12-08T20:41:03.198Z,-0.36
2022-12-08T20:43:30.818Z,-0.38
2022-12-08T20:45:58.443Z,-0.36
2022-12-08T20:52:14.535Z,-0.40
2022-12-08T20:54:42.221Z,-0.40
2022-12-08T20:57:09.877Z,-0.39
2022-12-08T20:59:37.577Z,-0.37
2022-12-08T21:02:05.375Z,-0.36
2022-12-08T21:04:33.201Z,-0.36
2022-12-08T21:07:00.957Z,-0.35
2022-12-08T21:09:28.910Z,-0.32
2022-12-08T21:11:56.686Z,-0.31
2022-12-08T21:14:24.378Z,-0.30
2022-12-08T21:16:54.633Z,-0.30
2022-12-08T21:19:22.726Z,-0.29
2022-12-08T21:21:51.008Z,-0.25
2022-12-08T21:24:19.378Z,-0.23
2022-12-08T21:26:47.106Z,-0.21
2022-12-08T21:29:14.914Z,-0.19
2022-12-08T21:31:42.673Z,-0.15
2022-12-08T21:34:11.504Z,-0.12
2022-12-08T21:36:39.181Z,-0.11
2022-12-08T21:39:12.783Z,-0.09
2022-12-08T21:41:59.609Z,-0.08
2022-12-08T21:44:27.493Z,-0.10
2022-12-08T21:46:55.167Z,-0.13
2022-12-08T21:49:22.968Z,-0.14
2022-12-08T21:51:50.985Z,-0.15
2022-12-08T21:54:19.583Z,-0.18
2022-12-08T21:56:49.097Z,-0.19
2022-12-08T21:59:18.462Z,-0.20
2022-12-08T22:01:46.759Z,-0.21
2022-12-08T22:04:18.259Z,-0.21
2022-12-08T22:06:46.063Z,-0.22
2022-12-08T22:09:15.258Z,-0.20
2022-12-08T22:11:44.161Z,-0.19
2022-12-08T22:14:14.981Z,-0.20
2022-12-08T22:16:44.364Z,-0.21
2022-12-08T22:19:12.698Z,-0.23
2022-12-08T22:21:40.458Z,-0.22
2022-12-08T22:24:08.281Z,-0.22
2022-12-08T22:26:36.042Z,-0.27
2022-12-08T22:29:03.846Z,-0.27
2022-12-08T22:31:31.852Z,-0.24
2022-12-08T22:34:00.180Z,-0.18
2022-12-08T22:36:28.765Z,-0.16
2022-12-08T22:38:56.481Z,-0.10
2022-12-08T22:41:24.480Z,-0.06
2022-12-08T22:43:52.317Z,-0.03
2022-12-08T22:46:23.435Z,-0.04
2022-12-08T22:48:54.128Z,-0.04
2022-12-08T22:51:21.959Z,-0.03
2022-12-08T22:53:50.162Z,0.01
2022-12-08T22:56:19.179Z,0.02
2022-12-08T22:58:47.820Z,0.02
2022-12-08T23:01:26.693Z,0.03
2022-12-08T23:03:55.025Z,0.02
2022-12-08T23:06:23.540Z,0.02
2022-12-08T23:08:52.322Z,0.02
2022-12-08T23:11:22.285Z,-0.01
2022-12-08T23:13:49.947Z,-0.06
2022-12-08T23:16:17.950Z,-0.08
2022-12-08T23:18:47.329Z,-0.12
2022-12-08T23:21:18.606Z,-0.15
2022-12-08T23:23:46.898Z,-0.19
2022-12-08T23:26:23.787Z,-0.21
2022-12-08T23:28:51.893Z,-0.25
2022-12-08T23:31:20.663Z,-0.28
2022-12-08T23:33:48.852Z,-0.32
2022-12-08T23:36:17.880Z,-0.33
2022-12-08T23:38:46.244Z,-0.34
2022-12-08T23:41:15.974Z,-0.33
2022-12-08T23:43:46.814Z,-0.35
2022-12-08T23:46:16.982Z,-0.35
2022-12-08T23:48:44.781Z,-0.36
2022-12-08T23:51:13.107Z,-0.41
2022-12-08T23:53:41.563Z,-0.43
2022-12-08T23:56:12.212Z,-0.49
2022-12-08T23:58:40.690Z,-0.60
